createdAt,value
2018-07-19T16:24:45.575Z,194.20
2018-07-19T16:27:16.978Z,204.93
2018-07-19T16:29:48.005Z,203.80
2018-07-19T16:32:19.059Z,217.05
2018-07-19T16:34:50.251Z,199.35
2018-07-19T16:37:21.392Z,208.60
2018-07-19T16:39:52.839Z,201.12
2018-07-19T16:42:23.957Z,204.60
2018-07-19T16:44:55.143Z,200.93
2018-07-19T16:47:26.880Z,206.85
2018-07-19T16:49:58.274Z,203.37
2018-07-19T16:52:29.451Z,217.43
2018-07-19T16:55:01.030Z,205.20
2018-07-19T16:57:32.625Z,219.82
2018-07-19T17:00:04.458Z,215.35
2018-07-19T17:02:35.603Z,216.10
2018-07-19T17:05:07.730Z,225.60
2018-07-19T17:07:38.721Z,222.95
2018-07-19T17:10:10.430Z,231.57
2018-07-19T17:12:42.003Z,212.75
2018-07-19T17:15:13.148Z,205.47
2018-07-19T17:17:44.546Z,211.70
2018-07-19T17:20:15.700Z,215.30
2018-07-19T17:22:46.850Z,206.35
2018-07-19T17:25:18.144Z,216.95
2018-07-19T17:27:49.435Z,211.47
2018-07-19T17:30:21.907Z,210.38
2018-07-19T17:32:54.599Z,205.60
2018-07-19T17:35:25.522Z,212.95
2018-07-19T17:37:56.776Z,207.37
2018-07-19T17:40:28.200Z,201.10
2018-07-19T17:43:00.609Z,202.82
2018-07-19T17:45:32.144Z,208.07
2018-07-19T17:48:04.611Z,213.35
2018-07-19T17:50:36.667Z,208.90
2018-07-19T17:53:08.220Z,207.00
2018-07-19T17:55:39.301Z,197.85
2018-07-19T17:58:10.875Z,194.95
2018-07-19T18:00:44.203Z,202.10
2018-07-19T18:03:15.231Z,200.82
2018-07-19T18:05:46.556Z,201.32
2018-07-19T18:08:17.632Z,206.80
2018-07-19T18:10:49.988Z,198.85
2018-07-19T18:13:21.468Z,206.23
2018-07-19T18:15:52.532Z,201.73
2018-07-19T18:18:23.947Z,204.38
2018-07-19T18:20:54.980Z,203.67
2018-07-19T18:23:26.124Z,199.30
2018-07-19T18:25:57.458Z,206.15
2018-07-19T18:28:28.807Z,203.80
2018-07-19T18:31:01.202Z,210.15
2018-07-19T18:33:33.798Z,209.45
2018-07-19T18:36:04.990Z,196.63
2018-07-19T18:38:36.371Z,202.40
2018-07-19T18:41:07.703Z,202.05
2018-07-19T18:43:38.801Z,205.70
2018-07-19T18:46:10.129Z,198.30
2018-07-19T18:48:41.563Z,202.05
2018-07-19T18:51:12.731Z,201.20
2018-07-19T18:53:44.140Z,203.70
2018-07-19T18:56:15.327Z,204.38
2018-07-19T18:58:47.142Z,198.65
2018-07-19T19:01:18.294Z,200.57
2018-07-19T19:03:49.735Z,199.72
2018-07-19T19:06:20.932Z,199.90
2018-07-19T19:08:52.444Z,203.02
2018-07-19T19:11:25.002Z,202.18
2018-07-19T19:13:56.372Z,194.60
2018-07-19T19:16:27.848Z,192.20
2018-07-19T19:19:00.320Z,199.42
2018-07-19T19:21:32.156Z,195.38
2018-07-19T19:24:03.631Z,207.00
2018-07-19T19:26:34.741Z,196.90
2018-07-19T19:29:06.189Z,194.93
2018-07-19T19:31:37.203Z,192.92
2018-07-19T19:34:11.242Z,201.47
2018-07-19T19:36:43.878Z,197.30
2018-07-19T19:39:14.907Z,194.82
2018-07-19T19:41:46.704Z,191.28
2018-07-19T19:44:17.684Z,192.35
2018-07-19T19:46:48.898Z,185.80
2018-07-19T19:49:20.143Z,191.50
2018-07-19T19:52:10.679Z,182.70
2018-07-19T19:54:42.431Z,189.07
2018-07-19T19:59:54.523Z,184.82
2018-07-19T20:02:27.644Z,188.22
2018-07-19T20:05:00.258Z,183.87
2018-07-19T20:07:32.636Z,183.57
2018-07-19T20:10:07.672Z,184.30
2018-07-19T20:12:39.995Z,184.50
2018-07-19T20:15:11.603Z,187.43
2018-07-19T20:17:42.928Z,187.27
2018-07-19T20:20:13.868Z,207.87
2018-07-19T20:22:45.264Z,201.77
2018-07-19T20:25:16.317Z,190.15
2018-07-19T20:27:47.583Z,192.87
2018-07-19T20:30:18.791Z,187.92
2018-07-19T20:32:49.850Z,185.90
2018-07-19T20:35:20.867Z,185.32
2018-07-19T20:37:51.831Z,183.00
2018-07-19T20:40:22.871Z,186.20
2018-07-19T20:42:54.523Z,191.07
2018-07-19T20:45:25.606Z,187.35
2018-07-19T20:47:56.815Z,185.18
2018-07-19T20:50:27.877Z,183.70
2018-07-19T20:52:58.957Z,183.90
2018-07-19T20:55:30.731Z,182.93
2018-07-19T20:58:02.408Z,183.45
2018-07-19T21:00:33.818Z,179.97
2018-07-19T21:03:05.801Z,186.40
2018-07-19T21:05:38.306Z,183.30
2018-07-19T21:08:11.350Z,183.82
2018-07-19T21:10:42.437Z,184.57
2018-07-19T21:13:14.675Z,183.27
2018-07-19T21:15:46.135Z,182.60
2018-07-19T21:18:17.548Z,189.55
2018-07-19T21:20:48.602Z,185.00
2018-07-19T21:23:21.093Z,182.80
2018-07-19T21:25:52.743Z,180.93
2018-07-19T21:28:23.765Z,183.47
2018-07-19T21:30:54.963Z,181.60
2018-07-19T21:33:25.835Z,183.18
2018-07-19T21:35:57.015Z,184.03
2018-07-19T21:38:28.266Z,183.40
2018-07-19T21:40:59.787Z,184.30
2018-07-19T21:43:31.350Z,188.35
2018-07-19T21:46:02.443Z,183.22
2018-07-19T21:48:33.460Z,182.60
2018-07-19T21:51:05.218Z,182.17
2018-07-19T21:53:36.259Z,186.00
2018-07-19T21:56:07.153Z,180.63
2018-07-19T21:58:38.226Z,181.47
2018-07-19T22:01:10.556Z,181.97
2018-07-19T22:03:41.549Z,183.35
2018-07-19T22:06:12.880Z,180.60
2018-07-19T22:08:44.420Z,181.95
2018-07-19T22:11:15.450Z,179.27
2018-07-19T22:13:46.597Z,181.50
2018-07-19T22:16:18.955Z,177.78
2018-07-19T22:18:50.067Z,186.35
2018-07-19T22:21:21.556Z,180.80
2018-07-19T22:23:52.639Z,183.20
2018-07-19T22:26:23.659Z,180.57
2018-07-19T22:28:54.744Z,183.78
2018-07-19T22:31:25.969Z,180.57
2018-07-19T22:33:57.051Z,177.55
2018-07-19T22:36:28.198Z,182.57
2018-07-19T22:38:59.224Z,185.88
2018-07-19T22:41:30.375Z,185.67
2018-07-19T22:44:01.494Z,194.07
2018-07-19T22:46:32.903Z,181.02
2018-07-19T22:49:03.811Z,180.60
2018-07-19T22:51:35.023Z,181.60
2018-07-19T22:54:06.594Z,185.32
2018-07-19T22:56:37.763Z,188.12
2018-07-19T22:59:08.828Z,184.22
2018-07-19T23:01:39.867Z,181.95
2018-07-19T23:04:11.060Z,186.50
2018-07-19T23:06:42.275Z,182.20
2018-07-19T23:09:13.409Z,184.70
2018-07-19T23:11:44.508Z,179.70
2018-07-19T23:14:15.452Z,181.67
2018-07-19T23:16:46.546Z,180.95
2018-07-19T23:19:17.555Z,178.47
2018-07-19T23:21:48.788Z,180.12
2018-07-19T23:24:20.316Z,181.05
2018-07-19T23:26:51.562Z,184.35
2018-07-19T23:29:23.181Z,179.30
2018-07-19T23:31:54.630Z,182.62
2018-07-19T23:34:25.642Z,184.07
2018-07-19T23:37:03.489Z,179.90
2018-07-19T23:39:52.247Z,184.00
2018-07-19T23:42:27.673Z,182.85
2018-07-19T23:46:07.489Z,180.60
2018-07-19T23:48:38.642Z,178.82
2018-07-19T23:51:09.814Z,181.78
2018-07-19T23:53:41.097Z,181.85
2018-07-19T23:56:15.987Z,177.30
2018-07-19T23:58:51.213Z,184.90
